Time;durP1;ratioP1;P1;durP2;ratioP2;P2;SDS_P1;SDS_P2;PMS_P1;PMS_P2;Temp;Humidity;BMP_temperature;BMP_pressure;BME280_temperature;BME280_humidity;BME280_pressure;Samples;Min_cycle;Max_cycle;Signal;HPM_P1;HPM_P2
2021/06/30 00:00:14;;;;;;;15.60;14.20;;;;;;;22.16;70.30;100492.38;5040895;28;20178;-66
2021/06/30 00:02:39;;;;;;;40.57;36.37;;;;;;;21.99;71.73;100484.25;5057421;28;20577;-66
2021/06/30 00:05:06;;;;;;;21.43;19.53;;;;;;;22.02;70.97;100486.78;5061107;28;20184;-67
2021/06/30 00:07:32;;;;;;;17.60;16.00;;;;;;;21.85;71.79;100482.16;5061010;28;20181;-67
2021/06/30 00:09:57;;;;;;;19.07;17.50;;;;;;;22.24;70.42;100472.59;5061626;28;20458;-67
2021/06/30 00:12:23;;;;;;;18.20;16.70;;;;;;;22.31;70.16;100474.03;5059927;28;20420;-65
2021/06/30 00:14:48;;;;;;;19.13;17.27;;;;;;;22.25;70.34;100474.31;5042352;28;20178;-65
2021/06/30 00:17:14;;;;;;;19.30;17.70;;;;;;;21.89;71.54;100473.16;5040387;28;20236;-64
2021/06/30 00:19:39;;;;;;;18.70;17.00;;;;;;;22.14;71.00;100472.13;5040819;28;20174;-65
2021/06/30 00:22:05;;;;;;;17.90;16.20;;;;;;;22.24;70.66;100462.81;5040631;28;20174;-65
2021/06/30 00:24:30;;;;;;;18.93;17.33;;;;;;;21.53;73.46;100461.34;5039829;28;20218;-65
2021/06/30 00:26:55;;;;;;;19.43;17.60;;;;;;;21.91;72.35;100460.69;5040674;28;20200;-65
2021/06/30 00:29:21;;;;;;;19.73;17.97;;;;;;;21.49;72.90;100464.16;5040656;28;20568;-66
2021/06/30 00:31:46;;;;;;;16.93;15.43;;;;;;;21.47;73.55;100461.56;5056152;28;20194;-65
2021/06/30 00:34:11;;;;;;;18.03;16.20;;;;;;;21.85;72.39;100455.63;5060172;28;20592;-66
2021/06/30 00:36:46;;;;;;;18.10;16.40;;;;;;;21.99;71.85;100455.06;5060717;28;20235;-65
2021/06/30 00:39:11;;;;;;;18.60;16.70;;;;;;;21.99;71.31;100455.06;5060267;28;20172;-66
2021/06/30 00:41:37;;;;;;;18.17;16.77;;;;;;;21.74;72.19;100448.13;5058629;28;20503;-66
2021/06/30 00:44:02;;;;;;;18.13;16.83;;;;;;;21.73;72.58;100448.19;5053382;28;20182;-65
2021/06/30 00:46:30;;;;;;;21.07;19.13;;;;;;;21.30;74.25;100448.13;5040184;28;20174;-67
2021/06/30 00:48:56;;;;;;;20.30;18.70;;;;;;;21.90;72.26;100443.03;5039514;28;20448;-67
2021/06/30 00:51:22;;;;;;;19.37;17.63;;;;;;;22.04;71.12;100443.31;5040649;28;20475;-66
2021/06/30 00:53:48;;;;;;;21.07;19.27;;;;;;;21.89;72.21;100440.44;5040023;28;20439;-66
2021/06/30 00:56:13;;;;;;;24.80;22.47;;;;;;;21.99;72.11;100447.94;5040022;28;20525;-65
2021/06/30 00:58:39;;;;;;;25.80;23.60;;;;;;;22.02;71.54;100446.97;5040459;28;20306;-65
2021/06/30 01:01:05;;;;;;;26.33;23.77;;;;;;;21.94;71.24;100449.94;5039949;28;20174;-65
2021/06/30 01:03:30;;;;;;;23.30;21.20;;;;;;;21.78;71.46;100447.06;5039944;28;20462;-65
2021/06/30 01:05:56;;;;;;;35.80;32.37;;;;;;;21.62;72.40;100440.66;5040447;28;20208;-65
2021/06/30 01:08:21;;;;;;;26.13;23.70;;;;;;;21.56;72.25;100443.59;5039808;28;20167;-65
2021/06/30 01:10:46;;;;;;;32.73;29.60;;;;;;;21.56;72.52;100439.13;5039174;28;20218;-65
2021/06/30 01:13:12;;;;;;;25.40;23.10;;;;;;;21.48;72.42;100443.84;5039935;28;20182;-65
2021/06/30 01:15:45;;;;;;;28.37;25.70;;;;;;;21.62;72.02;100438.00;5039767;28;20210;-65
2021/06/30 01:18:10;;;;;;;27.20;24.70;;;;;;;21.42;72.91;100438.78;5039660;28;20174;-66
2021/06/30 01:20:35;;;;;;;27.20;24.70;;;;;;;21.31;72.92;100436.56;5040244;28;20677;-66
2021/06/30 01:23:07;;;;;;;29.53;26.73;;;;;;;21.24;72.76;100440.41;5039492;28;20178;-65
2021/06/30 01:25:32;;;;;;;31.07;27.97;;;;;;;21.00;74.07;100438.66;5039587;28;20622;-67
2021/06/30 01:27:58;;;;;;;31.20;28.03;;;;;;;21.17;73.37;100424.72;5039820;28;20413;-65
2021/06/30 01:30:23;;;;;;;31.63;28.60;;;;;;;20.99;73.87;100428.13;5039655;28;20206;-65
2021/06/30 01:32:49;;;;;;;34.87;31.37;;;;;;;20.82;74.13;100427.00;5039343;28;20178;-65
2021/06/30 01:35:22;;;;;;;37.10;30.60;;;;;;;20.64;75.08;100422.34;5039765;28;20512;-65
2021/06/30 01:37:47;;;;;;;33.20;29.60;;;;;;;20.74;75.11;100431.69;5039253;28;20243;-65
2021/06/30 01:40:13;;;;;;;32.20;28.90;;;;;;;20.60;75.69;100434.81;5056471;28;20880;-65
2021/06/30 01:42:42;;;;;;;33.03;29.67;;;;;;;20.84;74.94;100441.03;5039551;28;20551;-65
2021/06/30 01:45:08;;;;;;;32.60;28.60;;;;;;;20.88;74.64;100444.44;5039149;28;20420;-65
2021/06/30 01:47:33;;;;;;;34.67;31.07;;;;;;;20.90;74.67;100449.66;5039429;28;20416;-65
2021/06/30 01:49:58;;;;;;;36.37;32.20;;;;;;;20.64;75.69;100451.47;5050161;28;20336;-66
2021/06/30 01:52:29;;;;;;;46.20;38.43;;;;;;;20.93;74.77;100446.88;5038775;28;20204;-66
2021/06/30 01:54:54;;;;;;;45.70;37.07;;;;;;;20.81;75.33;100451.75;5045933;28;20265;-66
2021/06/30 01:57:19;;;;;;;50.50;41.17;;;;;;;20.67;76.25;100457.53;5039226;28;20468;-66
2021/06/30 01:59:44;;;;;;;43.63;36.40;;;;;;;20.40;77.29;100459.38;5037958;28;20180;-66
2021/06/30 02:02:10;;;;;;;39.50;33.57;;;;;;;20.83;75.82;100465.78;5038713;28;20228;-66
2021/06/30 02:04:35;;;;;;;43.83;34.90;;;;;;;20.86;75.13;100456.84;5039073;28;20166;-66
2021/06/30 02:07:00;;;;;;;58.87;41.43;;;;;;;20.82;75.84;100458.78;5038609;28;20220;-66
2021/06/30 02:09:26;;;;;;;53.77;40.87;;;;;;;21.11;74.69;100453.28;5038688;28;20221;-66
2021/06/30 02:11:51;;;;;;;49.03;36.70;;;;;;;20.94;75.32;100461.88;5039005;28;20253;-65
2021/06/30 02:14:16;;;;;;;49.53;38.40;;;;;;;20.51;77.05;100459.88;5038516;28;20174;-65
2021/06/30 02:16:41;;;;;;;49.50;38.77;;;;;;;21.15;74.89;100455.75;5048082;28;20212;-65
2021/06/30 02:19:08;;;;;;;49.03;38.33;;;;;;;21.07;75.27;100452.53;5058737;28;20174;-65
2021/06/30 02:21:34;;;;;;;53.57;41.47;;;;;;;20.99;75.29;100457.28;5058415;28;20173;-65
2021/06/30 02:24:00;;;;;;;49.30;39.53;;;;;;;21.10;74.93;100456.84;5058071;28;20793;-66
2021/06/30 02:26:28;;;;;;;51.23;39.50;;;;;;;20.95;75.16;100461.81;5058934;28;20447;-65
2021/06/30 02:28:54;;;;;;;53.00;41.00;;;;;;;21.07;74.95;100457.84;5040193;28;20788;-66
2021/06/30 02:31:21;;;;;;;52.33;40.63;;;;;;;21.06;75.72;100456.09;5050195;28;20463;-66
2021/06/30 02:33:46;;;;;;;58.63;42.03;;;;;;;20.97;75.58;100456.44;5058653;28;20458;-66
2021/06/30 02:36:12;;;;;;;56.60;41.37;;;;;;;21.08;75.69;100446.31;5057378;28;20424;-66
2021/06/30 02:38:38;;;;;;;58.60;40.80;;;;;;;21.02;75.26;100446.53;5042949;28;20200;-66
2021/06/30 02:41:03;;;;;;;47.03;38.93;;;;;;;20.71;76.63;100454.78;5038660;28;20402;-66
2021/06/30 02:43:28;;;;;;;47.20;36.70;;;;;;;20.59;76.62;100448.13;5038084;28;20178;-66
2021/06/30 02:45:54;;;;;;;44.20;37.40;;;;;;;20.97;75.19;100448.50;5054822;28;20189;-66
2021/06/30 02:48:19;;;;;;;48.90;37.27;;;;;;;21.04;75.13;100447.38;5058727;28;20204;-66
2021/06/30 02:50:44;;;;;;;54.07;40.37;;;;;;;21.16;74.84;100444.22;5058057;28;20208;-66
2021/06/30 02:53:10;;;;;;;61.23;40.43;;;;;;;20.80;76.54;100450.00;5058064;28;20181;-66
2021/06/30 02:55:35;;;;;;;55.63;40.00;;;;;;;20.95;76.46;100439.75;5056707;28;20483;-66
2021/06/30 02:58:00;;;;;;;54.80;40.60;;;;;;;20.95;75.91;100435.31;5053815;28;20197;-66
2021/06/30 03:00:26;;;;;;;51.80;39.07;;;;;;;21.45;74.18;100433.38;5058141;28;20435;-66
2021/06/30 03:02:51;;;;;;;44.93;35.33;;;;;;;21.37;73.72;100431.88;5056193;28;20203;-66
2021/06/30 03:05:17;;;;;;;45.73;36.83;;;;;;;21.17;74.66;100437.97;5058079;28;20173;-67
2021/06/30 03:07:43;;;;;;;47.80;35.50;;;;;;;21.01;75.04;100431.56;5057971;28;20174;-66
2021/06/30 03:10:10;;;;;;;45.07;36.00;;;;;;;20.96;74.80;100431.75;5058241;28;20247;-67
2021/06/30 03:12:35;;;;;;;38.83;32.97;;;;;;;21.46;72.99;100422.72;5057768;28;20593;-65
2021/06/30 03:15:06;;;;;;;43.40;33.53;;;;;;;21.25;73.64;100431.53;5057743;28;20427;-66
2021/06/30 03:17:34;;;;;;;37.57;33.23;;;;;;;21.35;72.90;100433.75;5058288;28;20543;-66
2021/06/30 03:19:59;;;;;;;43.63;33.47;;;;;;;21.10;74.03;100436.50;5041068;28;20451;-66
2021/06/30 03:22:25;;;;;;;37.70;31.97;;;;;;;21.18;73.58;100430.91;5037634;28;20501;-66
2021/06/30 03:24:50;;;;;;;40.83;31.90;;;;;;;21.33;73.17;100434.75;5037735;28;20256;-66
2021/06/30 03:27:15;;;;;;;34.27;29.50;;;;;;;21.25;73.26;100431.53;5037570;28;20178;-66
2021/06/30 03:29:41;;;;;;;37.93;31.90;;;;;;;21.39;73.20;100433.63;5037777;28;20206;-66
2021/06/30 03:32:07;;;;;;;39.40;31.37;;;;;;;21.49;72.60;100429.69;5037799;28;20228;-65
2021/06/30 03:34:32;;;;;;;36.10;30.83;;;;;;;21.28;73.43;100426.09;5037687;28;20198;-65
2021/06/30 03:36:57;;;;;;;37.40;32.77;;;;;;;21.51;72.65;100427.81;5037854;28;20177;-65
2021/06/30 03:39:23;;;;;;;33.00;28.80;;;;;;;21.63;71.49;100431.78;5037656;28;20212;-65
2021/06/30 03:41:48;;;;;;;33.10;29.10;;;;;;;21.44;71.37;100429.84;5037403;28;20185;-66
2021/06/30 03:44:13;;;;;;;38.80;30.77;;;;;;;21.66;70.94;100434.31;5037950;28;20174;-65
2021/06/30 03:46:39;;;;;;;36.37;29.90;;;;;;;21.67;70.71;100436.03;5037478;28;20236;-66
2021/06/30 03:49:04;;;;;;;33.70;30.07;;;;;;;21.76;70.23;100438.31;5036615;28;20225;-65
2021/06/30 03:51:29;;;;;;;33.13;29.53;;;;;;;21.39;71.44;100441.56;5038958;28;20179;-66
2021/06/30 03:53:55;;;;;;;32.80;29.20;;;;;;;21.79;70.39;100440.84;5037461;28;20175;-66
2021/06/30 03:56:25;;;;;;;33.90;29.93;;;;;;;21.85;70.24;100443.25;5037468;28;20271;-66
2021/06/30 03:58:55;;;;;;;31.57;28.47;;;;;;;21.80;69.39;100447.88;5038015;28;20162;-66
2021/06/30 04:01:21;;;;;;;33.37;29.50;;;;;;;22.30;67.35;100443.09;5036741;28;20427;-66
2021/06/30 04:03:51;;;;;;;31.70;28.30;;;;;;;22.11;66.77;100443.91;5037189;28;20643;-66
2021/06/30 04:06:17;;;;;;;29.60;26.40;;;;;;;21.80;68.15;100447.03;5037274;28;20178;-66
2021/06/30 04:08:42;;;;;;;30.73;27.57;;;;;;;21.76;68.54;100454.25;5037527;28;20503;-65
2021/06/30 04:11:07;;;;;;;33.43;28.03;;;;;;;21.75;68.36;100449.84;5057380;28;20535;-66
2021/06/30 04:13:33;;;;;;;33.13;29.80;;;;;;;21.84;67.67;100452.13;5056460;28;20189;-65
2021/06/30 04:15:58;;;;;;;27.50;24.80;;;;;;;22.10;65.52;100449.28;5057194;28;20169;-66
2021/06/30 04:18:23;;;;;;;27.97;25.37;;;;;;;22.04;65.76;100450.41;5058061;28;20214;-66
2021/06/30 04:20:48;;;;;;;26.17;23.77;;;;;;;21.94;65.86;100447.28;5057183;28;20178;-66
2021/06/30 04:23:14;;;;;;;25.27;22.77;;;;;;;22.11;65.64;100445.69;5059096;28;20588;-65
2021/06/30 04:25:39;;;;;;;25.60;23.30;;;;;;;22.01;65.19;100438.16;5059812;28;20165;-66
2021/06/30 04:28:05;;;;;;;24.10;22.00;;;;;;;22.01;65.30;100448.75;5040957;28;20193;-65
2021/06/30 04:30:31;;;;;;;25.87;23.47;;;;;;;22.10;64.31;100434.22;5040723;28;20474;-65
2021/06/30 04:32:57;;;;;;;25.63;23.43;;;;;;;21.97;64.59;100436.53;5049510;28;20423;-66
2021/06/30 04:35:22;;;;;;;26.20;23.70;;;;;;;22.46;63.70;100424.72;5060792;28;20181;-66
2021/06/30 04:37:48;;;;;;;26.77;24.47;;;;;;;22.98;62.15;100426.78;5050487;28;20201;-66
2021/06/30 04:40:13;;;;;;;26.27;23.87;;;;;;;23.15;60.75;100431.31;5058260;28;20243;-66
2021/06/30 04:42:38;;;;;;;24.90;22.60;;;;;;;22.74;62.77;100432.28;5056449;28;20316;-66
2021/06/30 04:45:04;;;;;;;24.53;22.37;;;;;;;22.47;63.77;100435.28;5059449;28;20196;-66
2021/06/30 04:47:30;;;;;;;24.80;22.60;;;;;;;22.42;63.79;100441.72;5072990;28;20183;-66
2021/06/30 04:49:55;;;;;;;26.70;24.30;;;;;;;22.25;64.00;100445.09;5060455;28;20233;-67
2021/06/30 04:52:20;;;;;;;27.37;24.90;;;;;;;22.52;63.35;100433.28;5054884;28;20174;-67
2021/06/30 04:54:46;;;;;;;29.50;26.70;;;;;;;22.66;63.20;100437.09;5054303;28;20435;-67
2021/06/30 04:57:11;;;;;;;28.13;25.63;;;;;;;22.15;64.31;100442.84;5058038;28;20182;-67
2021/06/30 04:59:36;;;;;;;27.47;24.97;;;;;;;22.24;64.11;100436.25;5044634;28;20217;-66
2021/06/30 05:02:02;;;;;;;27.13;24.70;;;;;;;22.32;64.03;100431.47;5040351;28;20201;-66
2021/06/30 05:04:27;;;;;;;27.20;24.60;;;;;;;22.29;64.25;100428.13;5041881;28;20450;-66
2021/06/30 05:06:52;;;;;;;27.00;24.50;;;;;;;22.52;63.63;100433.28;5039891;28;20191;-66
2021/06/30 05:09:18;;;;;;;26.80;24.50;;;;;;;22.33;64.77;100435.00;5044387;28;20202;-66
2021/06/30 05:11:43;;;;;;;28.53;25.93;;;;;;;22.27;64.61;100445.88;5060597;28;20174;-66
2021/06/30 05:14:09;;;;;;;27.50;24.80;;;;;;;22.17;65.23;100442.78;5049510;28;20437;-66
2021/06/30 05:16:34;;;;;;;27.40;25.00;;;;;;;22.00;65.95;100448.81;5041298;28;20196;-66
2021/06/30 05:18:59;;;;;;;27.37;24.87;;;;;;;22.06;65.52;100445.91;5052489;28;20210;-64
2021/06/30 05:21:25;;;;;;;28.30;25.67;;;;;;;21.95;66.30;100449.00;5060044;28;20174;-66
2021/06/30 05:23:50;;;;;;;25.93;23.53;;;;;;;22.18;65.53;100457.78;5059782;28;20279;-66
2021/06/30 05:26:16;;;;;;;26.63;24.23;;;;;;;21.87;66.47;100453.78;5062328;28;20166;-66
2021/06/30 05:28:41;;;;;;;24.73;22.43;;;;;;;21.94;66.37;100447.28;5079804;28;20180;-65
2021/06/30 05:31:06;;;;;;;26.67;24.07;;;;;;;21.96;65.60;100442.78;5050322;28;20185;-65
2021/06/30 05:33:32;;;;;;;25.53;23.23;;;;;;;22.30;64.83;100440.44;5039509;28;20194;-65
2021/06/30 05:35:57;;;;;;;28.87;25.97;;;;;;;22.57;63.75;100422.47;5046114;28;20502;-66
2021/06/30 05:38:23;;;;;;;25.70;23.20;;;;;;;22.42;64.09;100431.09;5059584;28;20260;-65
2021/06/30 05:40:49;;;;;;;28.87;26.10;;;;;;;22.41;64.06;100432.91;5046690;28;20268;-65
2021/06/30 05:43:14;;;;;;;27.70;25.20;;;;;;;22.72;62.97;100431.53;5046016;28;20245;-67
2021/06/30 05:45:40;;;;;;;27.63;24.93;;;;;;;22.54;63.49;100434.09;5049059;28;20177;-65
2021/06/30 05:48:06;;;;;;;25.67;23.27;;;;;;;22.60;63.62;100424.97;5039704;28;20193;-65
2021/06/30 05:50:31;;;;;;;25.67;23.27;;;;;;;22.44;63.82;100422.13;5039733;28;20279;-66
2021/06/30 05:52:57;;;;;;;26.40;23.93;;;;;;;22.52;63.95;100430.63;5039000;28;20176;-66
2021/06/30 05:55:22;;;;;;;25.60;23.17;;;;;;;22.53;64.42;100435.00;5042699;28;20543;-66
2021/06/30 05:57:48;;;;;;;26.13;23.60;;;;;;;22.73;63.52;100438.53;5051620;28;20610;-65
2021/06/30 06:00:16;;;;;;;24.57;22.13;;;;;;;22.92;62.50;100437.69;5054601;28;20178;-66
2021/06/30 06:02:41;;;;;;;23.93;21.93;;;;;;;22.44;64.63;100430.09;5039836;28;20265;-66
2021/06/30 06:05:07;;;;;;;24.70;22.50;;;;;;;22.65;64.24;100435.38;5053480;28;20439;-66
2021/06/30 06:07:32;;;;;;;26.30;24.00;;;;;;;22.33;65.09;100427.03;5048424;28;20444;-66
2021/06/30 06:09:59;;;;;;;26.23;23.60;;;;;;;22.85;63.42;100424.69;5049116;28;20209;-65
2021/06/30 06:12:25;;;;;;;28.50;25.80;;;;;;;22.88;62.97;100432.53;5055087;28;20186;-66
2021/06/30 06:14:50;;;;;;;28.27;25.53;;;;;;;22.60;63.81;100432.09;5072785;28;20418;-65
2021/06/30 06:17:15;;;;;;;26.63;23.93;;;;;;;22.49;64.33;100430.75;5074793;28;20494;-66
2021/06/30 06:19:41;;;;;;;24.97;22.67;;;;;;;22.59;63.59;100425.03;5057577;28;20196;-66
2021/06/30 06:22:06;;;;;;;31.83;23.90;;;;;;;22.81;63.34;100425.78;5044004;28;20209;-67
2021/06/30 06:24:32;;;;;;;25.50;22.90;;;;;;;22.65;63.99;100435.38;5041661;28;20257;-66
2021/06/30 06:26:59;;;;;;;25.53;23.13;;;;;;;22.19;64.91;100427.63;5043659;28;20198;-66
2021/06/30 06:29:25;;;;;;;24.70;22.20;;;;;;;22.30;65.33;100424.50;5054825;28;20482;-65
2021/06/30 06:31:50;;;;;;;25.07;22.70;;;;;;;21.69;67.23;100428.91;5052548;28;20197;-65
2021/06/30 06:34:20;;;;;;;24.57;22.27;;;;;;;22.12;66.03;100435.03;5058321;28;20240;-66
2021/06/30 06:36:49;;;;;;;26.93;23.90;;;;;;;22.23;65.29;100431.03;5058097;28;20499;-65
2021/06/30 06:39:16;;;;;;;25.33;22.87;;;;;;;22.81;63.67;100430.22;5056737;28;20498;-65
2021/06/30 06:41:41;;;;;;;23.30;21.20;;;;;;;22.69;63.70;100436.94;5058118;28;20430;-65
2021/06/30 06:44:07;;;;;;;25.70;23.30;;;;;;;22.54;64.04;100439.41;5049072;28;20453;-65
2021/06/30 06:46:32;;;;;;;25.80;23.27;;;;;;;22.68;64.06;100436.09;5037347;28;20178;-66
2021/06/30 06:48:58;;;;;;;23.20;21.20;;;;;;;22.54;63.67;100435.84;5046742;28;20186;-65
2021/06/30 06:51:23;;;;;;;25.23;22.83;;;;;;;22.39;64.36;100434.75;5044963;28;20212;-66
2021/06/30 06:53:48;;;;;;;23.67;21.43;;;;;;;22.37;64.79;100433.97;5048648;28;20188;-65
2021/06/30 06:56:18;;;;;;;25.23;22.80;;;;;;;22.30;64.70;100451.06;5038937;28;20267;-65
2021/06/30 06:58:44;;;;;;;24.67;22.47;;;;;;;22.22;64.96;100451.41;5037623;28;20189;-65
2021/06/30 07:01:09;;;;;;;24.13;21.60;;;;;;;22.27;64.63;100445.88;5037885;28;20436;-66
2021/06/30 07:03:35;;;;;;;24.63;22.43;;;;;;;22.19;64.63;100451.53;5037754;28;20489;-65
2021/06/30 07:06:00;;;;;;;24.43;22.13;;;;;;;22.39;64.24;100448.03;5040434;28;20209;-65
2021/06/30 07:08:25;;;;;;;26.10;23.50;;;;;;;22.10;65.13;100451.94;5038271;28;20178;-65
2021/06/30 07:10:51;;;;;;;25.63;23.33;;;;;;;22.12;64.99;100452.72;5049810;28;20208;-65
2021/06/30 07:13:16;;;;;;;26.73;23.93;;;;;;;22.17;65.14;100454.25;5047185;28;20182;-65
2021/06/30 07:15:41;;;;;;;25.97;23.47;;;;;;;22.29;64.89;100454.66;5043539;28;20202;-64
2021/06/30 07:18:15;;;;;;;27.40;24.70;;;;;;;22.03;65.27;100454.84;5055742;28;20181;-65
2021/06/30 07:20:41;;;;;;;28.20;25.53;;;;;;;22.50;64.61;100458.19;5036509;28;20281;-65
2021/06/30 07:23:06;;;;;;;26.50;23.70;;;;;;;22.13;65.63;100463.28;5035913;28;20524;-64
2021/06/30 07:25:31;;;;;;;25.77;23.10;;;;;;;22.07;65.51;100468.88;5037921;28;20447;-67
2021/06/30 07:27:57;;;;;;;27.10;24.47;;;;;;;22.34;64.61;100458.88;5037171;28;20197;-65
2021/06/30 07:30:22;;;;;;;29.43;26.50;;;;;;;22.08;65.66;100464.41;5037355;28;20209;-66
2021/06/30 07:32:47;;;;;;;25.43;23.00;;;;;;;22.12;65.33;100466.00;5041179;28;20170;-66
2021/06/30 07:35:13;;;;;;;27.60;24.90;;;;;;;22.16;65.20;100468.47;5043351;28;20194;-65
2021/06/30 07:37:38;;;;;;;26.50;24.00;;;;;;;22.28;64.90;100475.03;5046450;28;20208;-64
2021/06/30 07:40:05;;;;;;;24.97;22.30;;;;;;;22.41;64.93;100470.09;5055959;28;20526;-66
2021/06/30 07:42:30;;;;;;;25.37;22.67;;;;;;;22.29;65.24;100475.91;5057141;28;20216;-66
2021/06/30 07:44:55;;;;;;;25.07;22.77;;;;;;;22.31;65.02;100471.38;5054838;28;20531;-63
2021/06/30 07:47:21;;;;;;;23.30;21.20;;;;;;;22.38;64.97;100467.56;5037997;28;20182;-66
2021/06/30 07:49:47;;;;;;;22.90;20.90;;;;;;;22.83;63.50;100468.22;5039698;28;20205;-65
2021/06/30 07:52:12;;;;;;;23.63;20.83;;;;;;;22.47;64.13;100469.81;5042020;28;20205;-65
2021/06/30 07:54:37;;;;;;;25.33;22.83;;;;;;;22.35;63.93;100465.91;5057673;28;20196;-65
2021/06/30 07:57:03;;;;;;;23.07;20.90;;;;;;;23.13;62.65;100465.97;5041825;28;20555;-66
2021/06/30 07:59:28;;;;;;;25.27;22.77;;;;;;;22.58;63.51;100464.00;5059897;28;20569;-65
2021/06/30 08:01:54;;;;;;;26.30;23.63;;;;;;;22.92;62.82;100469.59;5048802;28;20182;-64
2021/06/30 08:04:19;;;;;;;25.80;23.10;;;;;;;22.89;63.10;100470.59;5063481;28;20181;-64
2021/06/30 08:06:44;;;;;;;24.93;22.63;;;;;;;23.09;62.24;100464.34;5070402;28;20177;-65
2021/06/30 08:09:10;;;;;;;23.77;21.57;;;;;;;22.76;62.26;100467.66;5040596;28;20205;-65
2021/06/30 08:11:35;;;;;;;23.47;21.27;;;;;;;22.92;62.67;100467.81;5040349;28;20174;-65
2021/06/30 08:14:00;;;;;;;27.43;25.00;;;;;;;23.03;61.97;100462.84;5056876;28;20290;-64
2021/06/30 08:16:26;;;;;;;27.93;25.27;;;;;;;23.09;62.56;100474.97;5040803;28;20232;-64
2021/06/30 08:18:51;;;;;;;25.03;22.80;;;;;;;22.93;62.91;100479.28;5041899;28;20462;-65
2021/06/30 08:21:17;;;;;;;24.20;22.00;;;;;;;22.70;63.59;100475.88;5040542;28;20170;-66
2021/06/30 08:23:44;;;;;;;23.80;21.40;;;;;;;22.99;61.96;100471.06;5040212;28;20222;-66
2021/06/30 08:26:10;;;;;;;24.50;22.00;;;;;;;22.91;62.20;100475.81;5040223;28;20232;-65
2021/06/30 08:28:36;;;;;;;23.93;21.87;;;;;;;22.75;62.86;100471.22;5056918;28;20463;-65
2021/06/30 08:31:02;;;;;;;23.50;21.33;;;;;;;22.76;62.36;100475.63;5039840;28;20468;-65
2021/06/30 08:33:27;;;;;;;23.33;21.30;;;;;;;22.88;61.87;100477.72;5040165;28;20217;-65
2021/06/30 08:35:54;;;;;;;21.13;19.23;;;;;;;23.28;60.76;100472.34;5060534;28;20171;-64
2021/06/30 08:38:20;;;;;;;23.73;21.53;;;;;;;23.66;60.16;100477.59;5042579;28;20197;-65
2021/06/30 08:40:45;;;;;;;23.27;21.07;;;;;;;23.09;61.43;100479.44;5040158;28;20440;-65
2021/06/30 08:43:10;;;;;;;23.53;21.43;;;;;;;23.16;61.38;100480.91;5039509;28;20196;-65
2021/06/30 08:45:36;;;;;;;21.97;19.87;;;;;;;23.61;59.77;100482.31;5039933;28;20277;-64
2021/06/30 08:48:03;;;;;;;23.20;20.90;;;;;;;23.34;60.77;100487.13;5040934;28;20198;-67
2021/06/30 08:50:29;;;;;;;22.83;20.57;;;;;;;23.60;59.37;100487.69;5041696;28;20206;-65
2021/06/30 08:52:55;;;;;;;23.50;21.40;;;;;;;23.67;59.14;100495.28;5044179;28;20485;-64
2021/06/30 08:55:21;;;;;;;21.90;19.70;;;;;;;24.08;57.64;100483.53;5055721;28;20764;-64
2021/06/30 08:57:47;;;;;;;22.00;19.70;;;;;;;24.07;57.78;100478.28;5039241;28;20433;-64
2021/06/30 09:00:14;;;;;;;23.13;20.77;;;;;;;24.44;57.22;100482.59;5042708;28;20256;-64
2021/06/30 09:02:43;;;;;;;23.63;21.40;;;;;;;24.60;57.35;100473.75;5050881;28;20757;-65
2021/06/30 09:05:34;;;;;;;22.27;20.10;;;;;;;24.54;57.01;100475.84;5055806;28;20534;-64
2021/06/30 09:07:58;;;;;;;19.77;18.07;;;;;;;24.79;55.55;100463.88;5058466;28;20511;-65
2021/06/30 09:10:31;;;;;;;21.57;19.10;;;;;;;24.66;55.42;100478.81;5058802;28;20558;-65
2021/06/30 09:12:57;;;;;;;19.50;17.70;;;;;;;24.74;55.02;100470.41;5053076;28;20276;-65
2021/06/30 09:15:33;;;;;;;19.30;17.60;;;;;;;24.43;55.44;100477.34;5039331;28;20460;-66
2021/06/30 09:18:33;;;;;;;17.83;16.00;;;;;;;24.47;55.98;100477.09;5039404;28;20265;-66
2021/06/30 09:21:20;;;;;;;17.70;15.90;;;;;;;24.64;55.58;100476.22;5039517;28;20440;-65
2021/06/30 09:24:27;;;;;;;17.07;15.37;;;;;;;25.21;53.83;100467.78;5039150;28;20472;-65
2021/06/30 09:26:56;;;;;;;15.83;14.43;;;;;;;27.14;49.42;100465.28;5044326;28;20512;-66
2021/06/30 09:29:22;;;;;;;14.17;12.97;;;;;;;27.50;48.30;100469.25;5056807;28;20470;-66
2021/06/30 09:31:49;;;;;;;14.70;13.30;;;;;;;26.95;48.97;100471.81;5039365;28;20421;-66
2021/06/30 09:34:19;;;;;;;13.60;12.50;;;;;;;26.56;48.75;100479.53;5050840;28;20209;-65
2021/06/30 09:36:54;;;;;;;14.53;13.33;;;;;;;27.14;48.61;100478.66;5049596;28;20452;-65
2021/06/30 09:39:20;;;;;;;14.87;13.63;;;;;;;27.67;47.54;100478.81;5045100;28;20512;-65
2021/06/30 09:41:46;;;;;;;14.00;12.73;;;;;;;26.72;49.97;100478.59;5057817;28;20424;-65
2021/06/30 09:44:18;;;;;;;16.33;14.73;;;;;;;26.25;51.18;100485.03;5039154;28;20179;-65
2021/06/30 09:46:44;;;;;;;16.00;14.70;;;;;;;25.94;51.50;100479.69;5043595;28;20523;-65
2021/06/30 09:49:13;;;;;;;14.60;13.30;;;;;;;26.61;50.25;100483.75;5057778;28;20458;-65
2021/06/30 09:51:40;;;;;;;13.70;12.40;;;;;;;26.58;49.80;100490.13;5043942;28;20429;-63
2021/06/30 09:54:08;;;;;;;15.47;14.17;;;;;;;26.34;51.16;100490.66;5046268;28;20447;-65
2021/06/30 09:56:38;;;;;;;14.90;13.40;;;;;;;25.07;54.59;100498.84;5038133;28;20420;-66
2021/06/30 09:59:09;;;;;;;15.70;14.30;;;;;;;24.61;56.16;100496.81;5038827;28;20439;-65
2021/06/30 10:01:34;;;;;;;15.63;14.33;;;;;;;24.45;55.98;100500.31;5054118;28;20465;-65
2021/06/30 10:04:00;;;;;;;16.67;14.93;;;;;;;24.68;56.40;100499.13;5058081;28;20505;-65
2021/06/30 10:06:31;;;;;;;15.50;14.10;;;;;;;24.65;54.72;100493.06;5048666;28;20552;-64
2021/06/30 10:09:02;;;;;;;14.43;13.20;;;;;;;24.59;54.66;100498.72;5046603;28;20565;-64
2021/06/30 10:11:29;;;;;;;14.40;13.20;;;;;;;24.62;54.51;100488.75;5038181;28;20868;-65
2021/06/30 10:13:55;;;;;;;13.60;12.20;;;;;;;25.34;52.26;100491.13;5039578;28;20421;-65
2021/06/30 10:16:22;;;;;;;13.67;12.40;;;;;;;25.17;53.32;100489.41;5056230;28;20499;-65
2021/06/30 10:18:52;;;;;;;13.67;12.47;;;;;;;25.65;52.03;100484.91;5047560;28;20947;-66
2021/06/30 10:21:21;;;;;;;15.97;12.40;;;;;;;25.97;50.94;100476.81;5051417;28;20857;-65
2021/06/30 10:23:47;;;;;;;14.50;13.10;;;;;;;26.59;50.16;100469.59;5037607;28;20504;-65
2021/06/30 10:26:15;;;;;;;12.70;11.47;;;;;;;26.35;50.47;100472.84;5054157;28;20817;-64
2021/06/30 10:28:41;;;;;;;13.40;11.67;;;;;;;26.34;51.52;100477.31;5039501;28;20505;-65
2021/06/30 10:31:06;;;;;;;11.97;10.97;;;;;;;25.82;51.82;100480.41;5049993;28;20472;-65
2021/06/30 10:33:34;;;;;;;12.40;11.30;;;;;;;25.55;52.54;100478.38;5038323;28;20921;-66
2021/06/30 10:36:00;;;;;;;12.27;11.27;;;;;;;25.46;53.24;100474.41;5038253;28;20188;-65
2021/06/30 10:38:49;;;;;;;13.10;11.80;;;;;;;25.68;52.02;100474.06;5053380;28;20435;-65
2021/06/30 10:41:53;;;;;;;13.40;12.30;;;;;;;25.20;53.20;100466.06;5037977;28;20408;-68
2021/06/30 10:44:26;;;;;;;12.57;11.27;;;;;;;25.52;52.20;100468.75;5054042;28;20844;-68
2021/06/30 10:46:53;;;;;;;11.90;10.80;;;;;;;25.59;51.78;100466.59;5038488;28;20926;-69
2021/06/30 10:49:19;;;;;;;11.60;10.40;;;;;;;25.87;51.95;100465.84;5039600;28;20510;-68
2021/06/30 10:51:50;;;;;;;11.90;10.90;;;;;;;25.57;52.26;100457.78;5047058;28;20468;-66
2021/06/30 10:54:31;;;;;;;13.60;11.50;;;;;;;25.24;53.49;100461.41;5054372;28;20462;-65
2021/06/30 10:57:19;;;;;;;12.10;11.10;;;;;;;24.93;53.77;100455.13;5048830;28;20436;-66
2021/06/30 11:00:04;;;;;;;13.33;11.10;;;;;;;25.07;54.02;100456.16;5037743;28;20444;-67
2021/06/30 11:02:33;;;;;;;11.70;10.60;;;;;;;25.15;53.74;100454.78;5052131;28;20440;-67
2021/06/30 11:05:14;;;;;;;11.50;10.40;;;;;;;25.07;53.74;100446.34;5058869;28;20444;-66
2021/06/30 11:07:43;;;;;;;13.07;11.93;;;;;;;25.46;52.82;100441.53;5040834;28;20454;-66